Time;durP1;ratioP1;P1;durP2;ratioP2;P2;SDS_P1;SDS_P2;PMS_P1;PMS_P2;Temp;Humidity;BMP_temperature;BMP_pressure;BME280_temperature;BME280_humidity;BME280_pressure;Samples;Min_cycle;Max_cycle;Signal;HPM_P1;HPM_P2
2021/11/04 00:02:06;;;;;;;20.33;16.67;;;7.80;99.00;;;;;;5033697;28;20091;-85
2021/11/04 00:04:32;;;;;;;21.67;16.83;;;7.80;99.00;;;;;;5033176;28;20037;-83
2021/11/04 00:06:58;;;;;;;21.02;16.85;;;7.80;99.10;;;;;;5034643;28;20041;-84
2021/11/04 00:09:23;;;;;;;21.58;17.02;;;7.80;99.10;;;;;;5033487;28;20041;-84
2021/11/04 00:11:49;;;;;;;21.60;17.70;;;7.80;99.00;;;;;;5028104;28;20129;-84
2021/11/04 00:14:15;;;;;;;21.80;17.40;;;7.80;99.00;;;;;;5032424;28;20040;-83
2021/11/04 00:16:40;;;;;;;21.85;17.52;;;7.80;99.00;;;;;;5033956;28;20041;-83
2021/11/04 00:19:06;;;;;;;21.33;16.83;;;7.70;99.00;;;;;;5032715;28;20064;-83
2021/11/04 00:21:32;;;;;;;21.50;16.98;;;7.70;99.00;;;;;;5034352;28;20099;-83
2021/11/04 00:23:57;;;;;;;21.65;16.98;;;7.70;99.00;;;;;;5033715;28;20048;-84
2021/11/04 00:26:23;;;;;;;21.70;17.23;;;7.70;99.00;;;;;;5032541;28;20064;-83
2021/11/04 00:28:49;;;;;;;19.75;16.38;;;7.70;99.10;;;;;;5033667;28;20132;-83
2021/11/04 00:31:14;;;;;;;20.52;16.65;;;7.70;99.10;;;;;;5025289;28;20046;-83
2021/11/04 00:33:40;;;;;;;21.33;17.58;;;7.70;99.10;;;;;;5024221;28;20091;-83
2021/11/04 00:36:06;;;;;;;21.25;17.33;;;7.70;99.10;;;;;;5032585;28;20075;-83
2021/11/04 00:38:32;;;;;;;20.35;16.48;;;7.70;99.10;;;;;;5032126;28;20041;-84
2021/11/04 00:40:58;;;;;;;21.05;16.73;;;7.70;99.10;;;;;;5034425;28;20378;-84
2021/11/04 00:43:23;;;;;;;20.55;16.58;;;7.70;99.10;;;;;;5033968;28;20049;-83
2021/11/04 00:45:49;;;;;;;20.55;16.77;;;7.70;99.10;;;;;;5033513;28;20033;-83
2021/11/04 00:48:15;;;;;;;23.23;17.75;;;7.70;99.10;;;;;;5032932;28;20045;-83
2021/11/04 00:50:40;;;;;;;20.38;16.63;;;7.70;99.10;;;;;;5034550;28;20053;-83
2021/11/04 00:53:06;;;;;;;20.63;16.63;;;7.70;99.10;;;;;;5032195;28;20393;-84
2021/11/04 00:55:32;;;;;;;20.70;16.73;;;7.70;99.10;;;;;;5032288;28;20050;-83
2021/11/04 00:57:57;;;;;;;20.42;15.82;;;7.70;99.10;;;;;;5032794;28;20053;-83
2021/11/04 01:00:23;;;;;;;21.38;16.80;;;7.70;99.10;;;;;;5032662;28;20428;-83
2021/11/04 01:02:49;;;;;;;21.70;16.88;;;7.70;99.10;;;;;;5034258;28;20050;-83
2021/11/04 01:05:15;;;;;;;20.45;16.30;;;7.70;99.10;;;;;;5032135;28;20428;-83
2021/11/04 01:07:40;;;;;;;19.65;15.88;;;7.70;99.00;;;;;;5031627;28;20048;-83
2021/11/04 01:10:09;;;;;;;20.00;16.25;;;7.70;98.90;;;;;;5033812;28;20037;-84
2021/11/04 01:12:35;;;;;;;21.15;16.00;;;7.70;98.90;;;;;;5021745;28;20060;-83
2021/11/04 01:15:01;;;;;;;21.85;17.48;;;7.70;99.00;;;;;;5031964;28;20034;-83
2021/11/04 01:17:28;;;;;;;22.10;16.55;;;7.70;99.00;;;;;;5032477;28;20064;-83
2021/11/04 01:19:53;;;;;;;20.02;16.00;;;7.70;99.00;;;;;;5033475;28;20056;-83
2021/11/04 01:22:20;;;;;;;20.38;15.80;;;7.60;98.90;;;;;;5031992;28;20041;-84
2021/11/04 01:24:45;;;;;;;20.90;17.00;;;7.70;98.90;;;;;;5031996;28;20053;-83
2021/11/04 01:27:11;;;;;;;21.88;16.25;;;7.60;98.80;;;;;;5032161;28;20090;-83
2021/11/04 01:29:37;;;;;;;21.38;17.13;;;7.60;98.90;;;;;;5031912;28;20119;-83
2021/11/04 01:32:02;;;;;;;20.55;16.50;;;7.60;98.90;;;;;;5033665;28;20033;-84
2021/11/04 01:34:28;;;;;;;21.13;16.25;;;7.60;98.90;;;;;;5033959;28;20072;-83
2021/11/04 01:36:54;;;;;;;20.75;16.55;;;7.60;98.90;;;;;;5031552;28;20076;-83
2021/11/04 01:39:19;;;;;;;21.60;16.52;;;7.60;98.80;;;;;;5032284;28;20144;-83
2021/11/04 01:41:45;;;;;;;21.73;16.92;;;7.60;98.90;;;;;;5031571;28;20041;-83
2021/11/04 01:44:11;;;;;;;19.45;15.48;;;7.60;98.90;;;;;;5033714;28;20493;-83
2021/11/04 01:46:36;;;;;;;21.02;16.23;;;7.60;99.30;;;;;;5033224;28;20080;-82
2021/11/04 01:49:02;;;;;;;19.88;15.75;;;7.60;98.90;;;;;;5032120;28;20045;-83
2021/11/04 01:51:28;;;;;;;20.02;16.30;;;7.60;98.80;;;;;;5032173;28;20128;-83
2021/11/04 01:53:53;;;;;;;19.88;16.10;;;7.60;98.70;;;;;;5031879;28;20080;-82
2021/11/04 01:56:19;;;;;;;19.75;15.57;;;7.60;98.80;;;;;;5030529;28;20057;-83
2021/11/04 01:58:44;;;;;;;19.63;15.35;;;7.60;98.80;;;;;;5032160;28;20046;-83
2021/11/04 02:01:10;;;;;;;20.73;15.90;;;7.60;98.80;;;;;;5031933;28;20132;-83
2021/11/04 02:03:43;;;;;;;19.55;16.00;;;7.50;98.80;;;;;;5031996;28;20115;-83
2021/11/04 02:06:14;;;;;;;20.65;15.50;;;7.60;99.00;;;;;;5032982;28;20041;-82
2021/11/04 02:08:50;;;;;;;19.95;15.50;;;7.50;99.00;;;;;;5025048;28;20070;-82
2021/11/04 02:11:26;;;;;;;19.58;15.18;;;7.50;99.10;;;;;;5031355;28;20107;-83
2021/11/04 02:14:04;;;;;;;18.30;15.30;;;7.50;99.10;;;;;;5014206;28;20038;-83
2021/11/04 02:16:32;;;;;;;20.73;15.98;;;7.50;99.10;;;;;;5019715;28;20045;-84
2021/11/04 02:19:04;;;;;;;20.02;16.02;;;7.50;99.10;;;;;;5032227;28;20069;-83
2021/11/04 02:21:36;;;;;;;19.58;15.73;;;7.50;99.20;;;;;;5028450;28;20389;-83
2021/11/04 02:24:23;;;;;;;17.67;14.52;;;7.50;99.20;;;;;;5031253;28;20045;-83
2021/11/04 02:26:50;;;;;;;19.13;15.27;;;7.60;99.20;;;;;;5031782;28;20071;-83
2021/11/04 02:29:17;;;;;;;18.50;14.85;;;7.50;99.20;;;;;;5031855;28;20471;-82
2021/11/04 02:31:44;;;;;;;18.33;15.10;;;7.50;99.20;;;;;;5031164;28;20041;-82
2021/11/04 02:34:09;;;;;;;17.77;14.57;;;7.50;99.20;;;;;;5032134;28;20500;-83
2021/11/04 02:36:37;;;;;;;17.92;14.50;;;7.60;99.20;;;;;;5031926;28;20084;-82
2021/11/04 02:39:03;;;;;;;17.58;14.55;;;7.60;99.20;;;;;;5031364;28;20057;-83
2021/11/04 02:41:31;;;;;;;18.83;14.88;;;7.60;99.20;;;;;;5033370;28;20042;-83
2021/11/04 02:44:01;;;;;;;18.13;15.00;;;7.60;99.20;;;;;;5033030;28;20037;-82
2021/11/04 02:46:28;;;;;;;18.00;14.55;;;7.60;99.20;;;;;;5031259;28;20049;-84
2021/11/04 02:48:54;;;;;;;19.17;14.88;;;7.60;99.10;;;;;;5032145;28;20128;-83
2021/11/04 02:51:19;;;;;;;17.67;14.10;;;7.60;99.10;;;;;;5017841;28;20073;-83
2021/11/04 02:53:47;;;;;;;19.67;15.32;;;7.60;99.00;;;;;;5027577;28;20045;-83
2021/11/04 02:56:13;;;;;;;19.90;15.18;;;7.60;99.00;;;;;;5032532;28;20512;-82
2021/11/04 02:58:38;;;;;;;18.55;15.35;;;7.50;99.10;;;;;;5032887;28;20492;-82
2021/11/04 03:01:04;;;;;;;18.33;14.55;;;7.50;99.10;;;;;;5034678;28;20073;-83
2021/11/04 03:03:30;;;;;;;17.17;14.07;;;7.60;99.10;;;;;;5035374;28;20477;-83
2021/11/04 03:05:57;;;;;;;18.25;14.82;;;7.60;99.00;;;;;;5036378;28;20053;-82
2021/11/04 03:08:25;;;;;;;18.20;14.77;;;7.60;99.40;;;;;;5036542;28;20045;-83
2021/11/04 03:10:54;;;;;;;20.80;14.73;;;7.50;99.00;;;;;;5019292;28;20054;-83
2021/11/04 03:13:20;;;;;;;17.30;14.55;;;7.50;99.00;;;;;;5032714;28;20038;-83
2021/11/04 03:15:52;;;;;;;18.58;14.80;;;7.60;99.00;;;;;;5036490;28;20053;-82
2021/11/04 03:18:18;;;;;;;18.40;15.07;;;7.50;99.00;;;;;;5036525;28;20094;-82
2021/11/04 03:20:48;;;;;;;16.98;13.73;;;7.50;99.00;;;;;;5033668;28;20120;-83
2021/11/04 03:23:16;;;;;;;18.10;13.65;;;7.60;99.10;;;;;;5035051;28;20053;-83
2021/11/04 03:25:45;;;;;;;18.83;14.52;;;7.50;99.10;;;;;;5035542;28;20084;-83
2021/11/04 03:28:11;;;;;;;18.42;15.07;;;7.50;99.10;;;;;;5033576;28;20550;-83
2021/11/04 03:30:39;;;;;;;18.42;14.43;;;7.50;99.10;;;;;;5021753;28;20049;-83
2021/11/04 03:33:07;;;;;;;16.77;14.20;;;7.50;99.10;;;;;;5034484;28;20599;-83
2021/11/04 03:35:36;;;;;;;17.85;14.15;;;7.50;99.10;;;;;;5035228;28;20053;-83
2021/11/04 03:38:06;;;;;;;16.75;13.63;;;7.60;99.10;;;;;;5034584;28;20041;-83
2021/11/04 03:40:32;;;;;;;17.38;14.32;;;7.50;99.00;;;;;;5036922;28;20127;-82
2021/11/04 03:42:58;;;;;;;17.63;13.68;;;7.60;99.00;;;;;;5033464;28;20053;-83
2021/11/04 03:45:24;;;;;;;16.75;14.02;;;7.50;99.00;;;;;;5034797;28;20421;-83
2021/11/04 03:47:50;;;;;;;17.73;13.98;;;7.50;99.00;;;;;;5033647;28;20045;-83
2021/11/04 03:50:18;;;;;;;18.17;14.07;;;7.50;99.00;;;;;;5019973;28;20057;-83
2021/11/04 03:52:44;;;;;;;17.75;14.20;;;7.50;99.00;;;;;;5027032;28;20469;-83
2021/11/04 03:55:15;;;;;;;19.00;14.45;;;7.50;99.00;;;;;;5034000;28;20592;-83
2021/11/04 03:57:41;;;;;;;17.17;14.13;;;7.50;99.00;;;;;;5035802;28;20386;-83
2021/11/04 04:00:10;;;;;;;17.70;13.05;;;7.50;99.00;;;;;;5034139;28;20465;-83
2021/11/04 04:02:36;;;;;;;17.52;14.43;;;7.50;99.00;;;;;;5033671;28;20042;-83
2021/11/04 04:05:03;;;;;;;16.73;13.57;;;7.50;99.10;;;;;;5035054;28;20052;-82
2021/11/04 04:07:30;;;;;;;18.00;14.07;;;7.50;99.10;;;;;;5035408;28;20397;-83
2021/11/04 04:09:57;;;;;;;17.30;14.05;;;7.50;99.10;;;;;;5034238;28;20042;-83
2021/11/04 04:12:22;;;;;;;18.38;14.70;;;7.50;99.10;;;;;;5034791;28;20077;-83
2021/11/04 04:14:49;;;;;;;17.42;13.38;;;7.50;99.10;;;;;;5035676;28;20130;-83
2021/11/04 04:17:15;;;;;;;18.23;14.20;;;7.50;99.20;;;;;;5023948;28;20030;-83
2021/11/04 04:19:40;;;;;;;16.30;13.27;;;7.50;99.10;;;;;;5031384;28;20532;-83
2021/11/04 04:22:06;;;;;;;16.67;13.60;;;7.60;99.20;;;;;;5034235;28;20064;-84
2021/11/04 04:24:32;;;;;;;16.40;12.93;;;7.50;99.10;;;;;;5034399;28;20041;-82
2021/11/04 04:27:00;;;;;;;16.15;12.60;;;7.50;99.10;;;;;;5033355;28;20060;-83
2021/11/04 04:29:26;;;;;;;16.20;13.43;;;7.50;99.10;;;;;;5033299;28;20504;-83
2021/11/04 04:31:51;;;;;;;15.35;13.25;;;7.50;99.10;;;;;;5034678;28;20045;-83
2021/11/04 04:34:17;;;;;;;16.13;13.60;;;7.50;99.10;;;;;;5034332;28;20067;-83
2021/11/04 04:36:42;;;;;;;17.35;13.82;;;7.50;99.10;;;;;;5033243;28;20053;-82
2021/11/04 04:39:08;;;;;;;15.43;12.50;;;7.50;99.00;;;;;;5032614;28;20041;-83
2021/11/04 04:41:34;;;;;;;16.67;12.73;;;7.50;99.00;;;;;;5033570;28;20136;-83
2021/11/04 04:43:59;;;;;;;15.77;13.00;;;7.50;99.40;;;;;;5033399;28;20124;-83
2021/11/04 04:46:25;;;;;;;15.43;12.82;;;7.50;99.00;;;;;;5031606;28;20052;-83
2021/11/04 04:48:52;;;;;;;15.30;12.43;;;7.50;99.00;;;;;;5015891;28;20087;-83
2021/11/04 04:51:17;;;;;;;15.95;12.52;;;7.50;99.00;;;;;;5033257;28;20100;-83
2021/11/04 04:53:43;;;;;;;16.70;13.23;;;7.50;99.00;;;;;;5034056;28;20448;-83
2021/11/04 04:56:09;;;;;;;16.63;13.02;;;7.50;99.10;;;;;;5032586;28;20080;-82
2021/11/04 04:58:34;;;;;;;16.23;13.07;;;7.50;99.10;;;;;;5033904;28;20412;-83
2021/11/04 05:01:00;;;;;;;15.57;12.82;;;7.50;99.00;;;;;;5032067;28;20052;-83
2021/11/04 05:03:26;;;;;;;16.35;13.10;;;7.50;99.00;;;;;;5033629;28;20042;-83
2021/11/04 05:05:52;;;;;;;17.83;13.38;;;7.50;99.00;;;;;;5032624;28;20111;-83
2021/11/04 05:08:17;;;;;;;15.32;12.35;;;7.50;99.00;;;;;;5013232;28;20046;-83
2021/11/04 05:10:43;;;;;;;17.38;13.73;;;7.50;99.00;;;;;;5013720;28;20116;-83
2021/11/04 05:13:08;;;;;;;15.77;12.77;;;7.50;99.00;;;;;;5015848;28;20128;-83
2021/11/04 05:15:34;;;;;;;17.33;14.18;;;7.50;99.00;;;;;;5031948;28;20133;-83
2021/11/04 05:18:00;;;;;;;16.98;13.15;;;7.50;99.00;;;;;;5019906;28;20033;-83
2021/11/04 05:20:26;;;;;;;16.35;13.10;;;7.50;99.00;;;;;;5025918;28;20034;-83
2021/11/04 05:22:52;;;;;;;16.30;13.10;;;7.50;98.90;;;;;;5032586;28;20052;-83
2021/11/04 05:25:17;;;;;;;16.13;12.52;;;7.50;98.90;;;;;;5032870;28;20045;-82
2021/11/04 05:27:52;;;;;;;16.48;13.25;;;7.50;98.90;;;;;;5027525;28;20222;-83
2021/11/04 05:30:19;;;;;;;16.63;13.35;;;7.50;98.90;;;;;;5033919;28;20503;-84
2021/11/04 05:32:44;;;;;;;18.98;14.57;;;7.50;98.90;;;;;;5032465;28;20096;-84
2021/11/04 05:35:10;;;;;;;17.63;13.48;;;7.40;98.90;;;;;;5031171;28;20382;-83
2021/11/04 05:37:36;;;;;;;17.33;13.43;;;7.50;98.90;;;;;;5033052;28;20045;-88
2021/11/04 05:40:02;;;;;;;17.27;13.75;;;7.50;98.90;;;;;;5033844;28;20038;-87
2021/11/04 05:42:28;;;;;;;18.17;13.15;;;7.50;98.90;;;;;;5033506;28;20148;-87
2021/11/04 05:44:53;;;;;;;16.70;13.48;;;7.50;98.90;;;;;;5033139;28;20057;-88
2021/11/04 05:47:19;;;;;;;19.65;14.88;;;7.50;98.90;;;;;;5032585;28;20056;-85
2021/11/04 05:49:44;;;;;;;17.77;13.93;;;7.50;98.90;;;;;;5027334;28;20050;-86
2021/11/04 05:52:10;;;;;;;19.45;14.20;;;7.50;98.90;;;;;;5033108;28;20041;-87
2021/11/04 05:54:37;;;;;;;19.38;14.40;;;7.50;98.90;;;;;;5025463;28;20052;-88
2021/11/04 05:57:03;;;;;;;18.25;13.90;;;7.50;99.00;;;;;;5095099;23;20096;-87
2021/11/04 05:59:29;;;;;;;19.23;14.60;;;7.50;99.00;;;;;;5049637;28;20095;-84
2021/11/04 06:01:55;;;;;;;27.00;17.08;;;7.50;99.00;;;;;;5042941;28;20044;-86
2021/11/04 06:04:21;;;;;;;26.38;16.95;;;7.50;99.00;;;;;;5052793;28;20428;-85
2021/11/04 06:06:49;;;;;;;23.98;17.23;;;7.50;99.00;;;;;;5052473;28;20041;-85
2021/11/04 06:09:15;;;;;;;25.90;17.95;;;7.50;98.90;;;;;;5052092;28;20045;-85
2021/11/04 06:11:40;;;;;;;25.63;17.95;;;7.50;98.80;;;;;;5052288;28;20594;-85
2021/11/04 06:14:07;;;;;;;26.48;17.27;;;7.50;98.90;;;;;;5052168;28;20087;-85
2021/11/04 06:16:33;;;;;;;27.17;18.25;;;7.50;98.90;;;;;;5052845;28;20045;-86
2021/11/04 06:18:59;;;;;;;27.25;18.33;;;7.50;98.80;;;;;;5051922;28;20052;-86
2021/11/04 06:21:24;;;;;;;27.10;18.35;;;7.50;98.90;;;;;;5052164;28;20048;-86
2021/11/04 06:23:50;;;;;;;26.15;17.30;;;7.50;98.90;;;;;;5051605;28;20143;-85
2021/11/04 06:26:16;;;;;;;26.75;18.70;;;7.50;99.00;;;;;;5045523;28;20041;-85
2021/11/04 06:28:42;;;;;;;26.80;17.35;;;7.50;99.00;;;;;;5032748;28;20034;-85
2021/11/04 06:31:08;;;;;;;27.48;18.40;;;7.50;99.00;;;;;;5031548;28;20091;-85
2021/11/04 06:33:33;;;;;;;27.65;19.10;;;7.50;99.00;;;;;;5033046;28;20042;-85
2021/11/04 06:35:59;;;;;;;26.30;18.33;;;7.50;98.90;;;;;;5036382;28;20038;-85
2021/11/04 06:38:25;;;;;;;29.73;18.42;;;7.50;98.90;;;;;;5036907;28;20095;-86
2021/11/04 06:40:51;;;;;;;24.67;16.65;;;7.50;98.90;;;;;;5036343;28;20044;-86
2021/11/04 06:43:18;;;;;;;25.40;16.80;;;7.50;98.80;;;;;;5035554;28;20052;-86
2021/11/04 06:45:49;;;;;;;27.15;18.38;;;7.50;98.80;;;;;;5035312;28;20055;-86
2021/11/04 06:48:23;;;;;;;25.50;17.70;;;7.50;98.80;;;;;;5035922;28;20044;-86
2021/11/04 06:50:51;;;;;;;25.90;17.92;;;7.50;98.80;;;;;;5036415;28;20099;-86
2021/11/04 06:53:22;;;;;;;25.88;18.10;;;7.50;98.80;;;;;;5034994;28;20042;-86
2021/11/04 06:55:52;;;;;;;26.08;17.23;;;7.50;98.80;;;;;;5037056;28;20041;-86
2021/11/04 06:58:22;;;;;;;24.65;17.55;;;7.50;98.80;;;;;;5037925;28;20128;-87
2021/11/04 07:00:48;;;;;;;24.33;16.67;;;7.50;98.80;;;;;;5039111;28;20041;-86
2021/11/04 07:03:48;;;;;;;23.88;16.45;;;7.50;98.90;;;;;;5038915;28;20049;-86
2021/11/04 07:06:22;;;;;;;26.30;17.13;;;7.50;98.70;;;;;;5037714;28;20033;-86
2021/11/04 07:08:57;;;;;;;26.50;17.13;;;7.50;98.80;;;;;;5039126;28;20102;-86
2021/11/04 07:11:25;;;;;;;25.63;16.58;;;7.50;98.90;;;;;;5039528;28;20657;-86
2021/11/04 07:13:57;;;;;;;24.83;17.25;;;7.50;98.90;;;;;;5038018;28;20060;-86
2021/11/04 07:16:24;;;;;;;24.92;16.63;;;7.50;98.80;;;;;;5038838;28;20095;-86
2021/11/04 07:18:55;;;;;;;26.83;17.67;;;7.50;98.80;;;;;;5038994;28;20128;-86
2021/11/04 07:21:44;;;;;;;24.88;16.98;;;7.50;98.80;;;;;;5037779;28;20513;-86
2021/11/04 07:24:16;;;;;;;23.90;17.58;;;7.50;98.80;;;;;;5033719;28;20045;-86
2021/11/04 07:26:46;;;;;;;24.33;16.48;;;7.50;98.80;;;;;;5034445;28;20049;-86
2021/11/04 07:29:14;;;;;;;26.30;17.48;;;7.50;98.80;;;;;;5018674;28;20120;-86
2021/11/04 07:31:42;;;;;;;26.23;18.00;;;7.50;98.70;;;;;;5019336;28;20154;-87
2021/11/04 07:34:16;;;;;;;26.17;17.42;;;7.50;98.70;;;;;;5018322;28;20045;-85
2021/11/04 07:36:41;;;;;;;23.27;16.90;;;7.50;98.70;;;;;;5033622;28;20073;-86
2021/11/04 07:39:08;;;;;;;25.00;17.50;;;7.50;98.70;;;;;;5037926;28;20067;-87
2021/11/04 07:41:35;;;;;;;23.50;16.05;;;7.50;98.70;;;;;;5037612;28;20124;-87
2021/11/04 07:44:03;;;;;;;24.20;17.50;;;7.50;98.70;;;;;;5037502;28;20037;-87
2021/11/04 07:46:29;;;;;;;26.77;18.27;;;7.50;98.70;;;;;;5036929;28;20497;-88
2021/11/04 07:48:55;;;;;;;23.60;17.08;;;7.60;99.00;;;;;;5030864;28;20064;-87
2021/11/04 07:51:21;;;;;;;24.33;17.33;;;7.50;98.70;;;;;;5038629;28;20400;-87
2021/11/04 07:53:47;;;;;;;24.55;16.33;;;7.60;98.70;;;;;;5035119;28;20033;-86
2021/11/04 07:56:13;;;;;;;24.05;17.00;;;7.60;98.70;;;;;;5017397;28;20049;-85
2021/11/04 07:58:39;;;;;;;24.23;16.83;;;7.60;98.70;;;;;;5038387;28;20083;-86
2021/11/04 08:01:05;;;;;;;25.73;17.45;;;7.60;98.70;;;;;;5037941;28;20412;-86
2021/11/04 08:03:31;;;;;;;25.38;17.30;;;7.60;98.70;;;;;;5037599;28;20052;-87
2021/11/04 08:05:56;;;;;;;22.73;16.65;;;7.60;98.70;;;;;;5038136;28;20041;-86
2021/11/04 08:08:22;;;;;;;31.80;20.25;;;7.60;98.70;;;;;;5037924;28;20052;-86
2021/11/04 08:10:52;;;;;;;24.50;17.30;;;7.60;98.60;;;;;;5037521;28;20079;-86
2021/11/04 08:13:17;;;;;;;25.75;18.02;;;7.60;98.60;;;;;;5037654;28;20047;-86
2021/11/04 08:15:43;;;;;;;23.92;16.98;;;7.70;98.60;;;;;;5037197;28;20045;-86
2021/11/04 08:18:09;;;;;;;24.60;17.33;;;7.70;98.60;;;;;;5037715;28;20127;-85
2021/11/04 08:20:36;;;;;;;25.40;17.70;;;7.70;98.70;;;;;;5051336;28;20052;-86
2021/11/04 08:23:06;;;;;;;25.30;17.35;;;7.70;98.60;;;;;;5056570;28;20045;-86
2021/11/04 08:25:32;;;;;;;25.00;17.67;;;7.70;98.60;;;;;;5057689;28;20400;-85
2021/11/04 08:27:57;;;;;;;24.48;16.90;;;7.70;98.60;;;;;;5057514;28;20036;-86
2021/11/04 08:30:24;;;;;;;24.23;16.58;;;7.70;98.60;;;;;;5056972;28;20499;-87
2021/11/04 08:32:50;;;;;;;25.00;17.50;;;7.70;98.60;;;;;;5058066;28;20052;-87
2021/11/04 08:35:16;;;;;;;23.35;16.05;;;7.70;98.70;;;;;;5057678;28;20044;-86
2021/11/04 08:37:42;;;;;;;25.33;16.17;;;7.70;98.60;;;;;;5048950;28;20094;-86
2021/11/04 08:40:08;;;;;;;28.25;16.75;;;7.70;98.60;;;;;;5055275;28;20123;-86
2021/11/04 08:42:35;;;;;;;25.27;17.33;;;7.70;98.60;;;;;;5055395;28;20103;-88
2021/11/04 08:45:00;;;;;;;22.63;16.05;;;7.80;98.70;;;;;;5044754;28;20052;-87
2021/11/04 08:47:28;;;;;;;23.27;16.45;;;7.80;98.70;;;;;;5039705;28;20098;-85
2021/11/04 08:49:54;;;;;;;22.83;16.27;;;7.80;98.70;;;;;;5040973;28;20063;-85
2021/11/04 08:52:24;;;;;;;22.55;16.30;;;7.80;98.70;;;;;;5037884;28;20029;-85
2021/11/04 08:54:50;;;;;;;21.42;15.93;;;7.80;98.80;;;;;;5037407;28;20155;-86
2021/11/04 08:57:16;;;;;;;23.00;16.33;;;7.80;98.80;;;;;;5055653;28;20068;-86
2021/11/04 08:59:42;;;;;;;22.27;15.65;;;7.80;98.70;;;;;;5055094;28;20433;-85
2021/11/04 09:02:16;;;;;;;22.52;15.85;;;7.80;98.70;;;;;;5046970;28;20123;-86
2021/11/04 09:04:43;;;;;;;21.60;15.30;;;7.80;98.80;;;;;;5044291;28;20058;-86
2021/11/04 09:07:10;;;;;;;21.83;15.95;;;7.80;98.70;;;;;;5042598;28;20385;-86
2021/11/04 09:09:36;;;;;;;21.27;15.40;;;7.90;98.80;;;;;;5048726;28;20136;-86
2021/11/04 09:12:05;;;;;;;20.73;15.07;;;7.90;98.80;;;;;;5043369;28;20049;-85
2021/11/04 09:14:30;;;;;;;19.60;14.35;;;7.90;98.80;;;;;;5045490;28;20533;-86
2021/11/04 09:17:00;;;;;;;20.88;15.23;;;7.90;98.80;;;;;;5074173;28;20044;-86
2021/11/04 09:19:26;;;;;;;22.02;15.35;;;7.90;98.80;;;;;;5042958;28;20072;-85
2021/11/04 09:21:52;;;;;;;18.55;14.20;;;7.90;98.80;;;;;;5036779;28;20045;-89
2021/11/04 09:24:18;;;;;;;19.70;14.80;;;8.00;98.80;;;;;;5036234;28;20384;-86
2021/11/04 09:26:43;;;;;;;20.20;15.18;;;8.00;98.80;;;;;;5035913;28;20056;-86
2021/11/04 09:29:09;;;;;;;19.40;14.55;;;8.00;98.80;;;;;;5036412;28;20045;-86
2021/11/04 09:31:35;;;;;;;18.05;14.13;;;8.00;98.70;;;;;;5049426;28;20036;-87
2021/11/04 09:34:01;;;;;;;19.60;14.45;;;8.00;98.70;;;;;;5056493;28;20044;-90
2021/11/04 09:36:32;;;;;;;20.58;15.18;;;8.10;98.80;;;;;;5056219;28;20494;-87
2021/11/04 09:38:59;;;;;;;19.33;14.57;;;8.10;98.70;;;;;;5056687;28;20055;-89
2021/11/04 09:41:25;;;;;;;29.60;13.35;;;8.10;98.70;;;;;;5054210;28;20052;-88
2021/11/04 09:43:50;;;;;;;19.40;14.30;;;8.10;98.70;;;;;;5050214;28;20043;-89
2021/11/04 09:46:16;;;;;;;19.20;13.98;;;8.10;98.70;;;;;;5055471;28;20458;-88
2021/11/04 09:48:42;;;;;;;25.95;14.73;;;8.10;98.70;;;;;;5045621;28;20463;-88
2021/11/04 09:51:08;;;;;;;18.52;13.77;;;8.10;98.70;;;;;;5051050;28;20057;-88
2021/11/04 09:53:34;;;;;;;19.58;14.45;;;8.10;98.70;;;;;;5056331;28;20045;-88
2021/11/04 09:56:01;;;;;;;18.25;14.30;;;8.10;98.70;;;;;;5054681;28;20466;-88
2021/11/04 09:58:27;;;;;;;17.63;13.60;;;8.10;98.70;;;;;;5050900;28;20080;-90
2021/11/04 10:00:53;;;;;;;18.33;13.60;;;8.10;98.60;;;;;;5047837;28;20040;-86
2021/11/04 10:03:19;;;;;;;31.58;15.20;;;8.20;98.60;;;;;;5044445;28;20044;-88
2021/11/04 10:05:50;;;;;;;23.73;13.10;;;8.20;98.60;;;;;;5056155;28;20416;-86
2021/11/04 10:08:35;;;;;;;17.60;13.38;;;8.20;98.60;;;;;;5053467;28;20608;-88
2021/11/04 10:11:10;;;;;;;17.98;13.20;;;8.20;98.60;;;;;;5055905;28;20044;-88
2021/11/04 10:13:36;;;;;;;17.88;13.50;;;8.20;98.60;;;;;;5049490;28;20480;-87
2021/11/04 10:16:02;;;;;;;17.95;13.32;;;8.20;98.60;;;;;;5053224;28;20044;-84
2021/11/04 10:18:28;;;;;;;15.65;11.82;;;8.30;98.70;;;;;;5055646;28;20069;-85
2021/11/04 10:21:00;;;;;;;17.23;12.63;;;8.30;98.70;;;;;;5055656;28;20049;-86
2021/11/04 10:23:34;;;;;;;17.77;12.93;;;8.30;98.70;;;;;;5055082;28;20044;-85
2021/11/04 10:26:10;;;;;;;15.75;12.50;;;8.30;98.70;;;;;;5055695;28;20048;-85
2021/11/04 10:28:36;;;;;;;16.95;12.82;;;8.30;98.60;;;;;;5055446;28;20051;-85
2021/11/04 10:31:03;;;;;;;17.23;12.82;;;8.30;98.70;;;;;;5054674;28;20075;-86
2021/11/04 10:33:34;;;;;;;18.33;13.18;;;8.30;98.60;;;;;;5055579;28;20123;-85
2021/11/04 10:36:16;;;;;;;17.02;12.18;;;8.40;98.70;;;;;;5055425;28;20465;-86
2021/11/04 10:39:08;;;;;;;17.08;12.57;;;8.40;98.70;;;;;;5055565;28;20051;-85
2021/11/04 10:41:38;;;;;;;17.95;13.05;;;8.40;98.50;;;;;;5052088;28;20052;-85
2021/11/04 10:44:09;;;;;;;20.35;12.90;;;8.40;98.60;;;;;;5054857;28;20041;-86
2021/11/04 10:46:44;;;;;;;26.25;14.70;;;8.40;98.60;;;;;;5055695;28;20098;-86
2021/11/04 10:49:10;;;;;;;19.15;14.27;;;8.50;98.50;;;;;;5055354;28;20040;-86
2021/11/04 10:51:36;;;;;;;18.77;12.90;;;8.50;98.40;;;;;;5054507;28;20471;-85
2021/11/04 10:54:04;;;;;;;17.33;13.25;;;8.50;98.40;;;;;;5055274;28;20369;-85
2021/11/04 10:56:32;;;;;;;18.33;13.10;;;8.50;98.50;;;;;;5054741;28;20045;-85
2021/11/04 10:59:09;;;;;;;18.40;12.80;;;8.50;98.50;;;;;;5054455;28;20442;-85
2021/11/04 11:01:41;;;;;;;20.40;14.73;;;8.50;98.50;;;;;;5055843;28;20448;-86
2021/11/04 11:04:09;;;;;;;16.05;11.80;;;8.60;98.50;;;;;;5055015;28;20083;-87
2021/11/04 11:06:49;;;;;;;20.88;14.63;;;8.60;98.50;;;;;;5055001;28;20076;-87
2021/11/04 11:09:18;;;;;;;15.30;12.05;;;8.60;98.40;;;;;;5055155;28;20070;-85
2021/11/04 11:11:47;;;;;;;17.20;12.65;;;8.60;98.40;;;;;;5054540;28;20048;-85
2021/11/04 11:14:14;;;;;;;19.30;13.88;;;8.60;98.50;;;;;;5054660;28;20067;-85
2021/11/04 11:16:43;;;;;;;19.58;14.20;;;8.60;98.50;;;;;;5055210;28;20090;-87
2021/11/04 11:19:10;;;;;;;19.05;13.35;;;8.70;98.50;;;;;;5054241;28;20476;-86
2021/11/04 11:21:41;;;;;;;17.85;13.40;;;8.70;98.50;;;;;;5058776;28;20036;-85
2021/11/04 11:24:12;;;;;;;18.42;13.75;;;8.70;98.60;;;;;;5058591;28;20094;-85
2021/11/04 11:26:43;;;;;;;18.17;13.15;;;8.80;98.50;;;;;;5058134;28;20063;-87
2021/11/04 11:29:10;;;;;;;18.33;13.70;;;8.80;98.40;;;;;;5058880;28;20112;-88
2021/11/04 11:31:49;;;;;;;19.27;13.48;;;8.80;98.30;;;;;;5058496;28;20137;-85
2021/11/04 11:34:16;;;;;;;18.08;13.85;;;8.80;98.10;;;;;;5058033;28;20380;-85
2021/11/04 11:37:10;;;;;;;17.02;12.63;;;8.80;98.10;;;;;;5058599;28;20047;-86
2021/11/04 11:39:41;;;;;;;18.73;13.02;;;8.90;98.10;;;;;;5057987;28;20098;-88
2021/11/04 11:42:08;;;;;;;16.67;12.32;;;8.90;98.20;;;;;;5058383;28;20090;-87
2021/11/04 11:44:43;;;;;;;17.48;12.70;;;8.90;98.30;;;;;;5074446;28;20040;-83
2021/11/04 11:47:10;;;;;;;16.90;12.18;;;9.00;98.30;;;;;;5052447;28;20029;-89
2021/11/04 11:49:41;;;;;;;17.15;12.65;;;9.00;98.40;;;;;;5055971;28;20040;-86
2021/11/04 11:52:30;;;;;;;18.38;12.38;;;9.10;98.40;;;;;;5053841;28;20041;-86
2021/11/04 11:55:07;;;;;;;16.20;12.02;;;9.10;98.30;;;;;;5039470;28;20079;-87
2021/11/04 11:57:34;;;;;;;17.00;12.15;;;9.10;98.20;;;;;;5037778;28;20508;-87
2021/11/04 11:59:59;;;;;;;18.88;13.07;;;9.20;98.30;;;;;;5037971;28;20123;-86
2021/11/04 12:02:37;;;;;;;16.85;12.35;;;9.30;98.20;;;;;;5037211;28;20120;-87
2021/11/04 12:05:27;;;;;;;14.63;11.40;;;9.30;98.00;;;;;;5055634;28;20128;-86
2021/11/04 12:08:27;;;;;;;15.35;11.32;;;9.30;97.90;;;;;;5037900;28;20053;-86
2021/11/04 12:10:55;;;;;;;14.98;11.23;;;9.40;97.80;;;;;;5037779;28;20048;-86
2021/11/04 12:13:35;;;;;;;16.67;11.55;;;9.50;97.70;;;;;;5037691;28;20044;-87
2021/11/04 12:16:22;;;;;;;16.45;11.60;;;9.40;97.40;;;;;;5036760;28;20038;-87
2021/11/04 12:18:53;;;;;;;17.00;11.65;;;9.50;97.60;;;;;;5038127;28;20044;-88
2021/11/04 12:21:20;;;;;;;17.33;12.40;;;9.50;97.80;;;;;;5037315;28;20041;-87
2021/11/04 12:23:47;;;;;;;17.67;11.40;;;9.60;97.90;;;;;;5036789;28;20488;-89
2021/11/04 12:26:14;;;;;;;15.05;11.45;;;9.60;97.90;;;;;;5056226;28;20185;-88
2021/11/04 12:28:48;;;;;;;15.10;11.30;;;9.70;98.00;;;;;;5050941;28;20486;-87
2021/11/04 12:31:20;;;;;;;14.60;10.98;;;9.70;98.00;;;;;;5035926;28;20041;-89
2021/11/04 12:33:46;;;;;;;15.25;11.23;;;9.80;98.00;;;;;;5048886;28;20119;-88
2021/11/04 12:36:12;;;;;;;13.35;10.20;;;9.80;98.10;;;;;;5055815;28;20060;-88
2021/11/04 12:38:44;;;;;;;13.98;10.70;;;9.90;98.00;;;;;;5057322;28;20044;-87
2021/11/04 12:41:12;;;;;;;12.20;8.82;;;9.90;97.90;;;;;;5057431;28;20044;-87